Search for airport 
image banner adimage banner adimage banner ad
image banner ad

39PN - Nelson's Run

Located in Mercer, United States

ICAO - 39PN, IATA -

Data provided by Airmate  

General information

Coordinates: N41°12'57" W80°11'51"
Elevation is 1305 feet MSL.
Magnetic variation is -08° East
View others Airports in Pennsylvania

Operational data

Special qualification required
Current time UTC:
Current local time:
Weather at : KUCP - New Castle Muni ( 28 km )
METAR: KUCP 091656Z AUTO 09008KT 3SM UP BR OVC006 03/02 A2991 RMK AO2 CIG 004V009 SLP153 P0013 T00280022
View NOTAMs / SUP AIP / TFR affecting this airport [VIEW]
Communications frequencies: [VIEW]

Runways:

RWY identifierQFULength (ft)Width (ft)SurfaceLDA (ft)
092500250GRASS
272500250GRASS

Airport contact information

Address: Mercer United States

Satellite view of 39PN